Time;durP1;ratioP1;P1;durP2;ratioP2;P2;SDS_P1;SDS_P2;PMS_P1;PMS_P2;Temp;Humidity;BMP_temperature;BMP_pressure;BME280_temperature;BME280_humidity;BME280_pressure;Samples;Min_cycle;Max_cycle;Signal;HPM_P1;HPM_P2
2022/10/29 00:01:45;;;;;;;53.78;7.45;;;12.20;99.90;;;;;;5053544;28;20029;-70
2022/10/29 00:04:10;;;;;;;66.10;8.38;;;12.20;99.90;;;;;;5053491;28;20052;-69
2022/10/29 00:06:36;;;;;;;56.03;8.15;;;12.10;99.90;;;;;;5053541;28;20071;-69
2022/10/29 00:09:02;;;;;;;50.13;8.70;;;12.00;99.90;;;;;;5053632;28;20047;-69
2022/10/29 00:11:28;;;;;;;52.92;7.50;;;12.00;99.90;;;;;;5053449;28;20127;-69
2022/10/29 00:13:57;;;;;;;48.97;6.57;;;11.90;99.90;;;;;;5053690;28;20480;-69
2022/10/29 00:16:26;;;;;;;58.00;7.72;;;11.90;99.90;;;;;;5053565;28;20380;-69
2022/10/29 00:18:52;;;;;;;47.70;5.97;;;12.00;99.90;;;;;;5052125;28;20036;-69
2022/10/29 00:21:20;;;;;;;47.92;5.97;;;11.90;99.90;;;;;;5053352;28;20032;-69
2022/10/29 00:23:46;;;;;;;42.00;5.93;;;11.80;99.90;;;;;;5051967;28;20018;-69
2022/10/29 00:26:12;;;;;;;45.75;7.40;;;11.80;99.90;;;;;;5053432;28;20029;-69
2022/10/29 00:28:38;;;;;;;37.58;6.35;;;11.80;99.90;;;;;;5053206;28;20021;-69
2022/10/29 00:31:05;;;;;;;75.05;7.88;;;11.70;99.90;;;;;;5053343;28;20131;-69
2022/10/29 00:33:31;;;;;;;54.88;7.03;;;11.70;99.90;;;;;;5057809;28;20037;-69
2022/10/29 00:36:00;;;;;;;51.35;7.93;;;11.60;99.90;;;;;;5055221;28;20483;-69
2022/10/29 00:38:26;;;;;;;67.30;8.07;;;11.70;99.90;;;;;;5059842;28;20035;-69
2022/10/29 00:40:52;;;;;;;62.85;6.38;;;11.60;99.90;;;;;;5072025;28;20033;-69
2022/10/29 00:43:21;;;;;;;38.28;6.07;;;11.50;99.90;;;;;;5067709;28;20029;-69
2022/10/29 00:46:21;;;;;;;47.50;6.53;;;11.40;99.90;;;;;;5052953;28;20021;-69
2022/10/29 00:48:50;;;;;;;48.85;7.40;;;11.40;99.90;;;;;;5039904;28;20043;-69
2022/10/29 00:51:17;;;;;;;87.20;6.82;;;11.30;99.90;;;;;;5060963;28;20025;-69
2022/10/29 00:53:56;;;;;;;47.25;6.10;;;11.30;99.90;;;;;;5073023;28;20037;-69
2022/10/29 00:56:24;;;;;;;55.10;8.27;;;11.20;99.90;;;;;;5073804;28;20066;-69
2022/10/29 00:58:50;;;;;;;52.20;6.30;;;11.20;99.90;;;;;;5072909;28;20024;-69
2022/10/29 01:01:16;;;;;;;42.80;7.50;;;11.20;99.90;;;;;;5066059;28;20029;-69
2022/10/29 01:03:42;;;;;;;71.13;7.97;;;11.20;99.90;;;;;;5052712;28;20490;-69
2022/10/29 01:06:07;;;;;;;47.90;5.30;;;11.10;99.90;;;;;;5052823;28;20071;-69
2022/10/29 01:09:23;;;;;;;46.33;5.30;;;11.10;99.90;;;;;;5052619;28;20020;-69
2022/10/29 01:11:49;;;;;;;35.78;5.72;;;11.10;99.90;;;;;;5052617;28;20032;-69
2022/10/29 01:14:52;;;;;;;39.33;6.75;;;11.00;99.90;;;;;;5053134;28;20029;-69
2022/10/29 01:17:27;;;;;;;55.13;6.03;;;11.00;99.90;;;;;;5053010;28;20050;-69
2022/10/29 01:20:20;;;;;;;32.40;5.05;;;10.90;99.90;;;;;;5052874;28;20516;-69
2022/10/29 01:23:01;;;;;;;53.55;7.38;;;11.00;99.90;;;;;;5053130;28;20035;-69
2022/10/29 01:25:35;;;;;;;50.33;5.40;;;11.00;99.90;;;;;;5052927;28;20116;-69
2022/10/29 01:28:31;;;;;;;41.33;6.20;;;10.90;99.90;;;;;;5053369;28;20044;-69
2022/10/29 01:31:21;;;;;;;44.53;5.25;;;11.00;99.90;;;;;;5052648;28;20032;-69
2022/10/29 01:34:13;;;;;;;37.03;5.28;;;10.90;99.90;;;;;;5053071;28;20021;-69
2022/10/29 01:37:11;;;;;;;54.42;6.10;;;10.80;99.90;;;;;;5029606;28;20040;-69
2022/10/29 01:40:02;;;;;;;46.08;5.78;;;10.80;99.90;;;;;;5056590;28;20473;-69
2022/10/29 01:42:38;;;;;;;32.42;4.68;;;10.70;99.90;;;;;;5056550;28;20032;-69
2022/10/29 01:45:12;;;;;;;46.28;6.07;;;10.70;99.90;;;;;;5056290;28;20078;-69
2022/10/29 01:47:53;;;;;;;36.40;6.45;;;10.60;99.90;;;;;;5056137;28;20029;-69
2022/10/29 01:50:21;;;;;;;31.20;4.57;;;10.60;99.90;;;;;;5056514;28;20021;-69
2022/10/29 01:52:49;;;;;;;34.70;4.63;;;10.50;99.90;;;;;;5056984;28;20032;-69
2022/10/29 01:55:19;;;;;;;36.78;4.40;;;10.60;99.90;;;;;;5055773;28;20033;-69
2022/10/29 01:57:44;;;;;;;39.35;3.80;;;10.60;99.90;;;;;;5056156;28;20033;-69
2022/10/29 02:00:13;;;;;;;30.80;4.50;;;10.60;99.90;;;;;;5055947;28;20488;-69
2022/10/29 02:03:17;;;;;;;35.65;4.45;;;10.50;99.90;;;;;;5056289;28;20468;-69
2022/10/29 02:06:02;;;;;;;29.55;3.75;;;10.50;99.90;;;;;;5055733;28;20028;-69
2022/10/29 02:09:03;;;;;;;41.95;4.68;;;10.40;99.90;;;;;;5056219;28;20025;-69
2022/10/29 02:12:02;;;;;;;45.08;4.63;;;10.40;99.90;;;;;;5056374;28;20108;-69
2022/10/29 02:14:51;;;;;;;34.85;3.88;;;10.40;99.90;;;;;;5055607;28;20029;-69
2022/10/29 02:17:17;;;;;;;28.98;4.57;;;10.40;99.90;;;;;;5055909;28;20060;-69
2022/10/29 02:19:43;;;;;;;37.00;4.78;;;10.40;99.90;;;;;;5055863;28;20064;-69
2022/10/29 02:22:08;;;;;;;33.92;5.32;;;10.40;99.90;;;;;;5055597;28;20104;-69
2022/10/29 02:24:34;;;;;;;31.83;4.07;;;10.40;99.90;;;;;;5055298;28;20025;-69
2022/10/29 02:26:59;;;;;;;26.35;3.78;;;10.40;99.90;;;;;;5055569;28;20029;-69
2022/10/29 02:29:25;;;;;;;50.72;6.55;;;10.30;99.90;;;;;;5055535;28;20021;-69
2022/10/29 02:31:50;;;;;;;52.53;4.32;;;10.30;99.90;;;;;;5055158;28;20076;-69
2022/10/29 02:34:16;;;;;;;39.03;3.83;;;10.30;99.90;;;;;;5055308;28;20432;-69
2022/10/29 02:36:41;;;;;;;33.20;4.43;;;10.40;99.90;;;;;;5055099;28;20029;-69
2022/10/29 02:39:07;;;;;;;23.33;4.28;;;10.30;99.90;;;;;;5055047;28;20103;-69
2022/10/29 02:41:32;;;;;;;34.58;4.55;;;10.30;99.90;;;;;;5057093;28;20055;-69
2022/10/29 02:43:58;;;;;;;20.65;3.13;;;10.40;99.90;;;;;;5054868;28;20469;-69
2022/10/29 02:46:23;;;;;;;15.10;2.22;;;10.30;99.90;;;;;;5061295;28;20032;-69
2022/10/29 02:48:49;;;;;;;29.75;4.28;;;10.30;99.90;;;;;;5074762;28;20020;-69
2022/10/29 02:51:16;;;;;;;23.90;2.97;;;10.30;99.90;;;;;;5074467;28;20373;-69
2022/10/29 02:53:42;;;;;;;22.77;2.80;;;10.20;99.90;;;;;;5074912;28;20032;-69
2022/10/29 02:56:08;;;;;;;25.33;3.97;;;10.20;99.90;;;;;;5074579;28;20039;-69
2022/10/29 02:58:34;;;;;;;28.70;3.45;;;10.10;99.90;;;;;;5071661;28;20033;-69
2022/10/29 03:00:59;;;;;;;21.98;3.40;;;10.10;99.90;;;;;;5074511;28;20472;-69
2022/10/29 03:03:25;;;;;;;10.90;2.40;;;10.00;99.90;;;;;;5070968;28;20029;-69
2022/10/29 03:05:51;;;;;;;21.80;2.67;;;10.00;99.90;;;;;;5064984;28;20082;-69
2022/10/29 03:08:17;;;;;;;19.92;2.58;;;9.90;99.90;;;;;;5060454;28;20082;-69
2022/10/29 03:10:43;;;;;;;25.23;3.35;;;9.80;99.90;;;;;;5057953;28;20438;-68
2022/10/29 03:13:08;;;;;;;20.08;3.17;;;9.80;99.90;;;;;;5063950;28;20036;-69
2022/10/29 03:15:36;;;;;;;18.08;2.75;;;9.70;99.90;;;;;;5072795;28;20032;-69
2022/10/29 03:18:02;;;;;;;18.13;2.78;;;9.70;99.90;;;;;;5074466;28;20032;-69
2022/10/29 03:20:28;;;;;;;17.38;2.80;;;9.60;99.90;;;;;;5074353;28;20083;-69
2022/10/29 03:22:53;;;;;;;17.40;3.58;;;9.50;99.90;;;;;;5060943;28;20480;-69
2022/10/29 03:25:19;;;;;;;17.83;2.85;;;9.50;99.90;;;;;;5054043;28;20473;-69
2022/10/29 03:27:45;;;;;;;18.77;2.53;;;9.50;99.90;;;;;;5054646;28;20037;-69
2022/10/29 03:30:12;;;;;;;21.60;2.95;;;9.60;99.90;;;;;;5067822;28;20369;-69
2022/10/29 03:32:42;;;;;;;19.25;3.47;;;9.50;99.90;;;;;;5073992;28;20103;-69
2022/10/29 03:35:09;;;;;;;22.75;2.88;;;9.50;99.90;;;;;;5073885;28;20025;-69
2022/10/29 03:37:35;;;;;;;17.83;2.83;;;9.50;99.90;;;;;;5074027;28;20533;-69
2022/10/29 03:40:00;;;;;;;15.45;2.55;;;9.50;99.90;;;;;;5073808;28;20052;-69
2022/10/29 03:42:26;;;;;;;13.30;2.97;;;9.40;99.90;;;;;;5073780;28;20499;-69
2022/10/29 03:44:51;;;;;;;18.80;2.47;;;9.30;99.90;;;;;;5073705;28;20085;-69
2022/10/29 03:47:17;;;;;;;19.20;2.70;;;9.30;99.90;;;;;;5073998;28;20103;-69
2022/10/29 03:49:42;;;;;;;18.02;3.28;;;9.20;99.90;;;;;;5073493;28;20020;-69
2022/10/29 03:52:08;;;;;;;22.40;3.05;;;9.20;99.90;;;;;;5073709;28;20031;-69
2022/10/29 03:54:33;;;;;;;20.50;3.40;;;9.10;99.90;;;;;;5073581;28;20020;-69
2022/10/29 03:56:59;;;;;;;29.58;3.53;;;9.20;99.90;;;;;;5073836;28;20437;-69
2022/10/29 03:59:24;;;;;;;29.98;4.15;;;9.20;99.90;;;;;;5073495;28;20042;-69
2022/10/29 04:01:50;;;;;;;19.25;2.75;;;9.20;99.90;;;;;;5073761;28;20490;-69
2022/10/29 04:04:15;;;;;;;16.25;2.97;;;9.20;99.90;;;;;;5095663;23;21010;-72
2022/10/29 04:06:41;;;;;;;12.60;2.35;;;9.20;99.90;;;;;;5073452;28;20024;-71
2022/10/29 04:09:07;;;;;;;16.33;2.70;;;9.10;99.90;;;;;;5056022;28;20173;-71
2022/10/29 04:11:32;;;;;;;25.35;3.78;;;9.00;99.90;;;;;;5073329;28;20040;-71
2022/10/29 04:13:57;;;;;;;24.27;4.75;;;8.90;99.90;;;;;;5073610;28;20086;-71
2022/10/29 04:16:23;;;;;;;22.05;2.72;;;8.90;99.90;;;;;;5073614;28;20437;-71
2022/10/29 04:18:49;;;;;;;28.10;3.03;;;9.10;99.90;;;;;;5073327;28;20067;-71
2022/10/29 04:21:15;;;;;;;22.85;3.17;;;9.10;99.90;;;;;;5070792;28;20067;-72
2022/10/29 04:23:41;;;;;;;19.92;2.47;;;9.00;99.90;;;;;;5053492;28;20515;-71
2022/10/29 04:26:07;;;;;;;24.30;2.92;;;8.90;99.90;;;;;;5053575;28;20021;-71
2022/10/29 04:28:32;;;;;;;10.73;1.70;;;8.90;99.90;;;;;;5053283;28;20101;-70
2022/10/29 04:31:03;;;;;;;27.48;3.63;;;8.80;99.90;;;;;;5053186;28;20472;-71
2022/10/29 04:33:29;;;;;;;49.33;4.10;;;8.80;99.90;;;;;;5053482;28;20029;-71
2022/10/29 04:35:54;;;;;;;31.80;4.03;;;8.90;99.90;;;;;;5053159;28;20025;-71
2022/10/29 04:38:20;;;;;;;39.88;4.97;;;9.00;99.90;;;;;;5053299;28;20503;-72
2022/10/29 04:40:46;;;;;;;29.05;3.85;;;9.10;99.90;;;;;;5068064;28;20064;-72
2022/10/29 04:43:11;;;;;;;30.33;4.78;;;9.10;99.90;;;;;;5053413;28;20029;-70
2022/10/29 04:45:37;;;;;;;34.95;3.33;;;9.00;99.90;;;;;;5055449;28;20036;-71
2022/10/29 04:48:05;;;;;;;35.10;4.35;;;9.00;99.90;;;;;;5070300;28;20050;-71
2022/10/29 04:50:31;;;;;;;28.73;3.55;;;9.00;99.90;;;;;;5073243;28;20111;-71
2022/10/29 04:52:58;;;;;;;33.20;3.75;;;9.00;99.90;;;;;;5072986;28;20028;-71
2022/10/29 04:55:24;;;;;;;25.65;3.17;;;9.00;99.90;;;;;;5071043;28;20039;-72
2022/10/29 04:57:50;;;;;;;42.13;4.50;;;9.00;99.90;;;;;;5073264;28;20531;-71
2022/10/29 05:00:15;;;;;;;34.33;4.68;;;9.10;99.90;;;;;;5053473;28;20030;-72
2022/10/29 05:02:41;;;;;;;26.08;4.38;;;9.00;99.90;;;;;;5072902;28;20035;-71
2022/10/29 05:05:07;;;;;;;24.90;3.30;;;9.10;99.90;;;;;;5073421;28;20052;-71
2022/10/29 05:07:32;;;;;;;23.58;4.53;;;9.10;99.90;;;;;;5072707;28;20027;-71
2022/10/29 05:09:58;;;;;;;29.17;3.60;;;9.10;99.90;;;;;;5073165;28;20392;-71
2022/10/29 05:12:23;;;;;;;27.70;4.18;;;9.10;99.90;;;;;;5073478;28;20095;-71
2022/10/29 05:14:49;;;;;;;32.10;3.65;;;9.00;99.90;;;;;;5076597;28;20119;-71
2022/10/29 05:17:14;;;;;;;22.63;2.83;;;9.00;99.90;;;;;;5076791;28;20089;-71
2022/10/29 05:19:40;;;;;;;19.20;3.53;;;9.00;99.90;;;;;;5076764;28;20025;-72
2022/10/29 05:22:05;;;;;;;24.80;4.03;;;8.90;99.90;;;;;;5055261;28;20595;-72
2022/10/29 05:24:31;;;;;;;35.70;3.97;;;8.90;99.90;;;;;;5056658;28;20103;-72
2022/10/29 05:26:56;;;;;;;22.90;3.40;;;8.90;99.90;;;;;;5056552;28;20021;-72
2022/10/29 05:29:22;;;;;;;27.50;3.85;;;8.90;99.90;;;;;;5056394;28;20094;-72
2022/10/29 05:31:47;;;;;;;44.40;4.60;;;8.90;99.90;;;;;;5056366;28;20104;-71
2022/10/29 05:34:13;;;;;;;29.23;3.53;;;9.00;99.90;;;;;;5056772;28;20029;-72
2022/10/29 05:36:38;;;;;;;40.92;5.25;;;9.00;99.90;;;;;;5056415;28;20029;-72
2022/10/29 05:39:04;;;;;;;16.60;3.38;;;9.10;99.90;;;;;;5058321;28;20094;-72
2022/10/29 05:41:29;;;;;;;16.77;3.15;;;9.00;99.90;;;;;;5066457;28;20534;-72
2022/10/29 05:43:55;;;;;;;24.65;3.35;;;8.90;99.90;;;;;;5076723;28;20039;-72
2022/10/29 05:46:20;;;;;;;24.17;2.97;;;8.80;99.90;;;;;;5076072;28;20052;-72
2022/10/29 05:48:46;;;;;;;20.15;3.17;;;8.80;99.90;;;;;;5076160;28;20028;-71
2022/10/29 05:51:11;;;;;;;16.45;2.83;;;8.60;99.90;;;;;;5076022;28;20052;-72
2022/10/29 05:53:37;;;;;;;28.80;3.28;;;8.60;99.90;;;;;;5075968;28;20036;-72
2022/10/29 05:56:02;;;;;;;17.40;2.70;;;8.60;99.90;;;;;;5076082;28;20028;-72
2022/10/29 05:58:28;;;;;;;29.30;3.65;;;8.50;99.90;;;;;;5075808;28;20388;-72
2022/10/29 06:00:53;;;;;;;32.35;3.72;;;8.70;99.90;;;;;;5076133;28;20025;-72
2022/10/29 06:03:21;;;;;;;26.45;3.58;;;8.60;99.90;;;;;;5073897;28;20043;-72
2022/10/29 06:05:48;;;;;;;33.92;3.65;;;8.70;99.90;;;;;;5075424;28;20170;-72
2022/10/29 06:08:14;;;;;;;24.38;3.25;;;8.60;99.90;;;;;;5070229;28;20025;-73
2022/10/29 06:10:40;;;;;;;22.67;3.65;;;8.60;99.90;;;;;;5056286;28;20036;-72
2022/10/29 06:13:13;;;;;;;16.52;3.75;;;8.50;99.90;;;;;;5076161;28;20024;-72
2022/10/29 06:15:39;;;;;;;8.23;2.28;;;8.30;99.90;;;;;;5074302;28;20025;-72
2022/10/29 06:18:04;;;;;;;19.75;3.38;;;8.20;99.90;;;;;;5055984;28;20532;-72
2022/10/29 06:20:30;;;;;;;13.85;2.78;;;8.20;99.90;;;;;;5055799;28;20037;-72
2022/10/29 06:22:56;;;;;;;26.48;3.20;;;8.20;99.90;;;;;;5050887;28;20016;-72
2022/10/29 06:25:22;;;;;;;35.42;3.65;;;8.20;99.90;;;;;;5075074;28;20016;-72
2022/10/29 06:27:59;;;;;;;18.48;3.22;;;8.30;99.90;;;;;;5075285;28;20059;-71
2022/10/29 06:30:25;;;;;;;14.00;2.30;;;8.30;99.90;;;;;;5075300;28;20035;-72
2022/10/29 06:32:50;;;;;;;26.80;3.65;;;8.20;99.90;;;;;;5075458;28;20029;-72
2022/10/29 06:35:16;;;;;;;30.75;3.83;;;8.20;99.90;;;;;;5075061;28;20051;-72
2022/10/29 06:37:41;;;;;;;64.20;7.18;;;8.30;99.90;;;;;;5072823;28;20033;-73
2022/10/29 06:40:10;;;;;;;34.83;4.45;;;8.60;99.90;;;;;;5055557;28;20047;-73
2022/10/29 06:42:35;;;;;;;20.33;3.45;;;8.60;99.90;;;;;;5057184;28;20059;-72
2022/10/29 06:45:01;;;;;;;12.20;2.70;;;8.60;99.90;;;;;;5054909;28;20040;-72
2022/10/29 06:47:26;;;;;;;25.02;3.88;;;8.60;99.90;;;;;;5057642;28;20108;-73
2022/10/29 06:49:52;;;;;;;18.20;3.70;;;8.50;99.90;;;;;;5055013;28;20111;-72
2022/10/29 06:52:17;;;;;;;30.38;3.88;;;8.50;99.90;;;;;;5063045;28;20033;-73
2022/10/29 06:54:43;;;;;;;23.23;4.30;;;8.50;99.90;;;;;;5074813;28;20039;-72
2022/10/29 06:57:08;;;;;;;31.05;3.90;;;8.60;99.90;;;;;;5074820;28;20034;-73
2022/10/29 06:59:34;;;;;;;28.00;3.28;;;8.80;99.90;;;;;;5074730;28;20365;-72
2022/10/29 07:01:59;;;;;;;23.23;3.58;;;8.90;99.90;;;;;;5074778;28;20107;-73
2022/10/29 07:04:25;;;;;;;30.33;4.80;;;9.00;99.90;;;;;;5074592;28;20041;-72
2022/10/29 07:06:50;;;;;;;36.60;3.63;;;9.10;99.90;;;;;;5075110;28;20074;-73
2022/10/29 07:09:16;;;;;;;19.65;4.45;;;9.30;99.90;;;;;;5074824;28;20020;-72
2022/10/29 07:11:41;;;;;;;20.45;3.50;;;9.30;99.90;;;;;;5056604;28;20515;-72
2022/10/29 07:14:08;;;;;;;13.40;3.10;;;9.40;99.90;;;;;;5073106;28;20085;-73
2022/10/29 07:16:34;;;;;;;22.55;3.92;;;9.50;99.90;;;;;;5074556;28;20065;-72
2022/10/29 07:19:01;;;;;;;23.98;3.83;;;9.60;99.90;;;;;;5059669;28;20481;-73
2022/10/29 07:21:26;;;;;;;23.05;4.53;;;9.70;99.90;;;;;;5061143;28;20025;-73
2022/10/29 07:23:52;;;;;;;31.70;3.80;;;9.70;99.90;;;;;;5053910;28;20033;-73
2022/10/29 07:26:17;;;;;;;37.92;5.55;;;9.80;99.90;;;;;;5053948;28;20056;-71
2022/10/29 07:28:43;;;;;;;47.20;6.03;;;9.90;99.90;;;;;;5054172;28;20021;-71
2022/10/29 07:31:08;;;;;;;29.83;4.60;;;10.00;99.90;;;;;;5054603;28;20029;-71
2022/10/29 07:33:34;;;;;;;29.63;3.53;;;10.10;99.90;;;;;;5053990;28;20056;-71
2022/10/29 07:36:00;;;;;;;41.65;4.80;;;10.20;99.90;;;;;;5053629;28;20025;-71
2022/10/29 07:38:26;;;;;;;39.97;4.88;;;10.30;99.90;;;;;;5053936;28;20024;-71
2022/10/29 07:40:52;;;;;;;34.42;4.00;;;10.50;99.90;;;;;;5053774;28;20075;-71
2022/10/29 07:43:19;;;;;;;25.52;3.90;;;10.60;99.90;;;;;;5054340;28;20115;-72
2022/10/29 07:45:49;;;;;;;52.58;4.63;;;10.70;99.90;;;;;;5068561;28;20024;-72
2022/10/29 07:48:15;;;;;;;36.40;5.20;;;10.80;99.90;;;;;;5073680;28;20024;-71
2022/10/29 07:50:40;;;;;;;38.28;4.95;;;10.90;99.90;;;;;;5073722;28;20039;-72
2022/10/29 07:53:07;;;;;;;45.80;5.50;;;11.00;99.90;;;;;;5074450;28;20037;-72
2022/10/29 07:55:32;;;;;;;35.97;3.95;;;11.10;99.90;;;;;;5073327;28;20391;-72
2022/10/29 07:58:01;;;;;;;28.00;4.10;;;11.20;99.90;;;;;;5074353;28;20028;-72
2022/10/29 08:00:27;;;;;;;55.78;6.15;;;11.30;99.90;;;;;;5073707;28;20020;-71
2022/10/29 08:02:54;;;;;;;48.65;5.38;;;11.30;99.90;;;;;;5073801;28;20033;-71
2022/10/29 08:05:20;;;;;;;42.83;4.50;;;11.30;99.90;;;;;;5057540;28;20021;-72
2022/10/29 08:07:45;;;;;;;53.45;5.22;;;11.40;99.90;;;;;;5054082;28;20049;-71
2022/10/29 08:10:11;;;;;;;27.67;4.07;;;11.50;99.90;;;;;;5053695;28;20056;-72
2022/10/29 08:12:37;;;;;;;55.72;6.50;;;11.50;99.90;;;;;;5053764;28;20084;-72
2022/10/29 08:15:04;;;;;;;59.92;7.13;;;11.60;99.90;;;;;;5053369;28;20029;-72
2022/10/29 08:17:30;;;;;;;47.45;6.93;;;11.60;99.90;;;;;;5053675;28;20476;-72
2022/10/29 08:19:56;;;;;;;41.08;6.97;;;11.70;99.90;;;;;;5053759;28;20025;-72
2022/10/29 08:22:22;;;;;;;37.78;8.68;;;11.80;99.90;;;;;;5053492;28;20370;-72
2022/10/29 08:24:47;;;;;;;53.13;8.02;;;11.80;99.90;;;;;;5053517;28;20542;-72
2022/10/29 08:27:13;;;;;;;39.42;9.98;;;11.90;99.90;;;;;;5051945;28;20108;-72
2022/10/29 08:29:38;;;;;;;41.85;9.13;;;11.90;99.90;;;;;;5053467;28;20104;-72
2022/10/29 08:32:04;;;;;;;51.53;9.38;;;12.10;99.90;;;;;;5053263;28;20028;-72
2022/10/29 08:34:29;;;;;;;37.55;8.82;;;12.20;99.90;;;;;;5053387;28;20051;-72
2022/10/29 08:36:55;;;;;;;52.85;10.80;;;12.20;99.90;;;;;;5053378;28;20473;-72
2022/10/29 08:39:20;;;;;;;57.65;10.93;;;12.30;99.90;;;;;;5053107;28;20047;-72
2022/10/29 08:42:01;;;;;;;49.40;11.45;;;12.30;99.90;;;;;;5053005;28;20029;-72
2022/10/29 08:44:32;;;;;;;42.00;11.48;;;12.20;99.90;;;;;;5053374;28;20021;-72
2022/10/29 08:47:20;;;;;;;43.40;11.02;;;12.30;99.90;;;;;;5053200;28;20036;-71
2022/10/29 08:50:19;;;;;;;41.17;12.30;;;12.30;99.90;;;;;;5057730;28;20025;-72
2022/10/29 08:52:46;;;;;;;54.35;12.60;;;12.40;99.90;;;;;;5051923;28;20037;-72
2022/10/29 08:55:13;;;;;;;45.83;14.05;;;12.40;99.90;;;;;;5061744;28;20021;-72
2022/10/29 08:57:48;;;;;;;46.63;16.08;;;12.50;99.90;;;;;;5077025;28;20461;-71
2022/10/29 09:00:17;;;;;;;60.08;16.73;;;12.60;99.90;;;;;;5076233;28;20457;-72
2022/10/29 09:02:43;;;;;;;41.13;14.57;;;12.60;99.90;;;;;;5077182;28;20020;-71
2022/10/29 09:05:19;;;;;;;48.13;15.73;;;12.60;99.90;;;;;;5047750;28;20039;-71
2022/10/29 09:08:02;;;;;;;44.58;16.58;;;12.60;99.90;;;;;;5057191;28;20024;-71
2022/10/29 09:11:06;;;;;;;35.08;15.45;;;12.70;99.90;;;;;;5068441;28;20092;-72
2022/10/29 09:13:49;;;;;;;49.30;16.75;;;12.70;99.90;;;;;;5046000;28;20040;-72
2022/10/29 09:16:30;;;;;;;45.15;17.38;;;12.70;99.90;;;;;;5075496;28;20060;-71
2022/10/29 09:19:12;;;;;;;38.05;15.52;;;12.70;99.90;;;;;;5077026;28;20025;-71
2022/10/29 09:22:01;;;;;;;39.75;16.38;;;12.90;99.90;;;;;;5062767;28;20037;-72
2022/10/29 09:24:38;;;;;;;42.40;14.32;;;13.00;99.90;;;;;;5028253;28;20112;-72
2022/10/29 09:27:15;;;;;;;35.75;15.98;;;13.30;99.90;;;;;;5056830;28;20025;-72
2022/10/29 09:30:06;;;;;;;30.55;14.52;;;13.50;99.90;;;;;;5056758;28;20060;-71
2022/10/29 09:32:40;;;;;;;38.67;14.32;;;13.60;99.90;;;;;;5056589;28;20053;-71
2022/10/29 09:35:13;;;;;;;29.83;12.95;;;13.60;99.90;;;;;;5056468;28;20025;-72
2022/10/29 09:37:47;;;;;;;32.75;14.43;;;13.60;99.90;;;;;;5056138;28;20480;-72
2022/10/29 09:40:36;;;;;;;38.03;13.50;;;13.50;99.90;;;;;;5056455;28;20029;-72
2022/10/29 09:43:26;;;;;;;28.67;12.93;;;13.50;99.90;;;;;;5056145;28;20028;-72
2022/10/29 09:46:07;;;;;;;32.30;13.50;;;13.70;99.90;;;;;;5056068;28;20032;-72
2022/10/29 09:48:51;;;;;;;36.22;12.55;;;13.80;99.90;;;;;;5056128;28;20020;-72
2022/10/29 09:51:24;;;;;;;29.25;12.43;;;13.60;99.90;;;;;;5056509;28;20051;-73
2022/10/29 09:53:51;;;;;;;30.35;12.85;;;13.40;99.90;;;;;;5056224;28;20029;-72
2022/10/29 09:56:16;;;;;;;26.65;13.35;;;13.30;99.90;;;;;;5055943;28;20021;-73
2022/10/29 09:58:45;;;;;;;27.13;13.27;;;13.20;99.90;;;;;;5069289;28;20472;-72
2022/10/29 10:01:12;;;;;;;27.67;13.63;;;13.20;99.90;;;;;;5075686;28;20028;-72
2022/10/29 10:03:45;;;;;;;25.25;13.93;;;13.20;99.90;;;;;;5057248;28;20415;-73
2022/10/29 10:06:13;;;;;;;33.50;15.47;;;13.20;99.90;;;;;;5098405;22;20127;-71
2022/10/29 10:08:58;;;;;;;30.75;14.18;;;13.30;99.90;;;;;;5075533;28;20024;-70
2022/10/29 10:11:32;;;;;;;30.63;14.38;;;13.30;99.90;;;;;;5075531;28;20056;-70
2022/10/29 10:13:58;;;;;;;;;;;13.40;99.90;;;;;;5076211;28;20029;-70
2022/10/29 10:16:27;;;;;;;31.23;15.18;;;13.60;99.90;;;;;;5060669;28;19912;-70
2022/10/29 10:18:53;;;;;;;31.42;15.93;;;13.50;99.90;;;;;;5055835;28;20108;-70
2022/10/29 10:21:30;;;;;;;32.88;15.52;;;13.60;99.90;;;;;;5055744;28;20098;-70
2022/10/29 10:23:57;;;;;;;37.70;16.45;;;13.60;99.90;;;;;;5055424;28;20136;-70
2022/10/29 10:26:28;;;;;;;39.67;17.98;;;13.70;99.90;;;;;;5055512;28;20123;-70
2022/10/29 10:29:20;;;;;;;36.42;18.73;;;13.70;99.90;;;;;;5071278;28;20112;-70
2022/10/29 10:31:56;;;;;;;38.65;18.55;;;13.60;99.90;;;;;;5072674;28;20047;-70
2022/10/29 10:34:31;;;;;;;34.13;18.75;;;13.70;99.90;;;;;;5070508;28;20025;-70
2022/10/29 10:37:02;;;;;;;30.73;18.98;;;13.80;99.90;;;;;;5075415;28;20472;-70
2022/10/29 10:39:31;;;;;;;31.65;17.55;;;13.90;99.90;;;;;;5075096;28;20032;-70
2022/10/29 10:42:00;;;;;;;31.95;17.80;;;13.80;99.90;;;;;;5062586;28;20013;-70
2022/10/29 10:44:27;;;;;;;46.78;18.20;;;13.90;99.90;;;;;;5055417;28;20024;-70
2022/10/29 10:46:54;;;;;;;27.52;16.83;;;14.00;99.90;;;;;;5055221;28;20049;-70
2022/10/29 10:49:49;;;;;;;38.45;17.77;;;14.20;99.90;;;;;;5055040;28;20439;-70
2022/10/29 10:52:23;;;;;;;32.05;17.45;;;14.20;99.90;;;;;;5042669;28;20041;-69
2022/10/29 10:54:59;;;;;;;31.67;16.73;;;14.20;99.90;;;;;;5074919;28;20021;-70
2022/10/29 10:57:35;;;;;;;39.28;17.13;;;14.10;99.90;;;;;;5066504;28;20043;-70
2022/10/29 11:00:06;;;;;;;36.90;17.55;;;14.10;99.90;;;;;;5055225;28;20021;-70
2022/10/29 11:02:59;;;;;;;31.15;17.10;;;14.00;99.90;;;;;;5058494;28;20024;-70
2022/10/29 11:05:32;;;;;;;26.67;16.57;;;14.00;99.90;;;;;;5074528;28;20028;-70
2022/10/29 11:08:09;;;;;;;41.65;17.85;;;14.00;99.90;;;;;;5074790;28;20020;-70
2022/10/29 11:10:42;;;;;;;33.75;19.10;;;14.10;99.90;;;;;;5074094;28;20031;-70
2022/10/29 11:13:20;;;;;;;;;;;14.00;99.90;;;;;;5075167;28;20111;-70
2022/10/29 11:16:01;;;;;;;36.47;17.88;;;13.90;99.90;;;;;;5074512;28;19990;-70
2022/10/29 11:18:37;;;;;;;42.47;19.20;;;14.00;99.90;;;;;;5074570;28;20044;-70
2022/10/29 11:21:23;;;;;;;37.75;19.40;;;13.90;99.90;;;;;;5074472;28;20021;-70
2022/10/29 11:24:07;;;;;;;39.58;17.98;;;14.00;99.90;;;;;;5074403;28;20529;-70
2022/10/29 11:26:51;;;;;;;;;;;14.20;99.90;;;;;;5074779;28;20393;-70
2022/10/29 11:29:41;;;;;;;34.58;16.88;;;14.20;99.90;;;;;;5074427;28;20329;-70
2022/10/29 11:32:20;;;;;;;29.55;18.10;;;14.30;99.90;;;;;;5074307;28;20025;-70
2022/10/29 11:35:09;;;;;;;35.38;17.85;;;14.40;99.90;;;;;;5073979;28;20024;-70
2022/10/29 11:37:55;;;;;;;33.35;17.65;;;14.40;99.90;;;;;;5074178;28;20099;-70
2022/10/29 11:40:22;;;;;;;33.50;16.42;;;14.50;99.90;;;;;;5073847;28;20031;-70
2022/10/29 11:42:48;;;;;;;34.40;17.52;;;14.50;99.90;;;;;;5073890;28;20029;-70
2022/10/29 11:45:25;;;;;;;24.45;16.83;;;14.30;99.90;;;;;;5073820;28;20027;-70
2022/10/29 11:48:11;;;;;;;29.00;16.58;;;14.20;99.90;;;;;;5073876;28;20017;-71
2022/10/29 11:51:10;;;;;;;29.02;16.48;;;14.10;99.90;;;;;;5073732;28;20107;-71
2022/10/29 11:54:03;;;;;;;34.88;17.73;;;14.00;99.90;;;;;;5073938;28;20024;-71
2022/10/29 11:56:37;;;;;;;28.30;16.95;;;14.00;99.90;;;;;;5073650;28;20025;-71
2022/10/29 11:59:10;;;;;;;33.42;17.48;;;14.10;99.90;;;;;;5073592;28;20475;-71
2022/10/29 12:02:10;;;;;;;36.10;17.98;;;14.00;99.90;;;;;;5073831;28;20035;-71
2022/10/29 12:04:52;;;;;;;28.63;15.85;;;14.00;99.90;;;;;;5073793;28;20090;-71
2022/10/29 12:07:29;;;;;;;24.90;15.75;;;13.90;99.90;;;;;;5073810;28;20031;-71
2022/10/29 12:10:07;;;;;;;28.00;17.42;;;14.00;99.90;;;;;;5073475;28;20025;-71
2022/10/29 12:12:58;;;;;;;28.25;14.95;;;14.00;99.90;;;;;;5073693;28;20031;-71
2022/10/29 12:15:41;;;;;;;23.48;15.40;;;14.00;99.90;;;;;;5055615;28;20379;-71
2022/10/29 12:18:28;;;;;;;22.97;16.03;;;14.00;99.90;;;;;;5073686;28;20024;-71
2022/10/29 12:21:06;;;;;;;25.80;14.07;;;14.10;99.90;;;;;;5073677;28;20430;-71
2022/10/29 12:23:49;;;;;;;38.15;18.60;;;14.10;99.90;;;;;;5073453;28;20067;-71
2022/10/29 12:26:34;;;;;;;;;;;14.00;99.90;;;;;;5073663;28;20403;-71
2022/10/29 12:29:22;;;;;;;29.00;17.65;;;14.10;99.90;;;;;;5073594;28;20402;-71
2022/10/29 12:31:54;;;;;;;24.70;15.32;;;14.20;99.90;;;;;;5073259;28;20058;-71
2022/10/29 12:34:29;;;;;;;27.90;15.55;;;14.20;99.90;;;;;;5073190;28;20025;-71
2022/10/29 12:37:21;;;;;;;28.25;17.10;;;14.30;99.90;;;;;;5073471;28;20365;-71
2022/10/29 12:39:54;;;;;;;20.13;12.45;;;14.30;99.90;;;;;;5068563;28;20016;-71
2022/10/29 12:42:28;;;;;;;27.42;17.17;;;14.40;99.90;;;;;;5065957;28;20094;-71
2022/10/29 12:45:12;;;;;;;33.03;18.67;;;14.40;99.90;;;;;;5066397;28;20070;-71
2022/10/29 12:47:53;;;;;;;26.73;16.25;;;14.50;99.90;;;;;;5066721;28;20024;-71
2022/10/29 12:50:35;;;;;;;32.55;17.92;;;14.60;99.90;;;;;;5071946;28;20024;-71
2022/10/29 12:53:14;;;;;;;35.35;18.42;;;14.60;99.90;;;;;;5073616;28;20032;-71
2022/10/29 12:55:41;;;;;;;39.65;18.35;;;14.60;99.90;;;;;;5073169;28;20032;-71
2022/10/29 12:58:44;;;;;;;28.48;16.30;;;14.60;99.90;;;;;;5072962;28;20059;-71
2022/10/29 13:01:25;;;;;;;32.90;17.33;;;14.60;99.90;;;;;;5065881;28;20032;-71